Time;durP1;ratioP1;P1;durP2;ratioP2;P2;SDS_P1;SDS_P2;PMS_P1;PMS_P2;Temp;Humidity;BMP_temperature;BMP_pressure;BME280_temperature;BME280_humidity;BME280_pressure;Samples;Min_cycle;Max_cycle;Signal;HPM_P1;HPM_P2
2023/05/15 00:00:10;;;;;;;12.57;3.10;;;16.60;85.90;;;;;;6246264;23;20084;-76
2023/05/15 00:02:37;;;;;;;9.48;3.45;;;16.60;86.10;;;;;;6246177;23;20012;-76
2023/05/15 00:05:04;;;;;;;9.45;3.53;;;16.60;86.20;;;;;;6246130;23;20042;-76
2023/05/15 00:07:30;;;;;;;6.93;3.33;;;16.60;86.20;;;;;;6245894;23;20008;-76
2023/05/15 00:09:56;;;;;;;6.18;3.20;;;16.50;86.30;;;;;;6245921;23;20065;-76
2023/05/15 00:12:21;;;;;;;6.43;2.72;;;16.50;86.40;;;;;;6245950;23;20023;-77
2023/05/15 00:14:47;;;;;;;7.90;2.97;;;16.50;86.40;;;;;;6246022;23;20044;-77
2023/05/15 00:17:13;;;;;;;6.10;3.05;;;16.50;86.50;;;;;;6245992;23;20018;-76
2023/05/15 00:19:38;;;;;;;6.45;3.05;;;16.50;86.60;;;;;;6219081;23;20018;-76
2023/05/15 00:22:04;;;;;;;7.43;3.35;;;16.50;86.60;;;;;;6246327;23;20024;-77
2023/05/15 00:24:30;;;;;;;8.40;3.53;;;16.50;86.80;;;;;;6246067;23;20460;-76
2023/05/15 00:26:56;;;;;;;5.85;3.30;;;16.40;86.80;;;;;;6245438;23;20058;-76
2023/05/15 00:29:22;;;;;;;8.10;3.60;;;16.40;86.90;;;;;;6245580;23;20000;-76
2023/05/15 00:31:48;;;;;;;8.38;3.25;;;16.40;86.80;;;;;;6245602;23;20438;-75
2023/05/15 00:34:13;;;;;;;6.72;3.45;;;16.40;87.00;;;;;;6245266;23;20050;-75
2023/05/15 00:36:39;;;;;;;7.38;3.05;;;16.40;87.00;;;;;;6245516;23;19996;-75
2023/05/15 00:39:05;;;;;;;11.73;3.85;;;16.30;87.00;;;;;;6245475;23;20441;-76
2023/05/15 00:41:32;;;;;;;8.65;3.38;;;16.30;87.30;;;;;;6246033;23;20307;-76
2023/05/15 00:43:59;;;;;;;5.95;2.85;;;16.30;87.20;;;;;;6245454;23;20004;-75
2023/05/15 00:46:29;;;;;;;8.90;2.90;;;16.30;87.30;;;;;;6244935;23;20007;-76
2023/05/15 00:48:56;;;;;;;6.93;2.47;;;16.30;87.10;;;;;;6218630;23;20023;-76
2023/05/15 00:51:22;;;;;;;6.43;2.85;;;16.40;87.20;;;;;;6245613;23;20087;-76
2023/05/15 00:53:51;;;;;;;5.45;2.70;;;16.40;87.30;;;;;;6245395;23;20008;-75
2023/05/15 00:56:17;;;;;;;7.00;2.78;;;16.40;87.10;;;;;;6218339;23;20011;-75
2023/05/15 00:58:45;;;;;;;9.73;3.75;;;16.30;87.20;;;;;;6245326;23;20007;-75
2023/05/15 01:01:12;;;;;;;5.45;3.08;;;16.30;87.30;;;;;;6245769;23;20008;-75
2023/05/15 01:03:37;;;;;;;4.65;2.72;;;16.30;87.50;;;;;;6245405;23;20019;-74
2023/05/15 01:06:03;;;;;;;7.18;2.95;;;16.30;87.60;;;;;;6245158;23;20008;-75
2023/05/15 01:08:42;;;;;;;7.00;3.03;;;16.30;87.70;;;;;;6245245;23;20008;-75
2023/05/15 01:11:08;;;;;;;6.53;3.15;;;16.30;87.90;;;;;;6245374;23;20004;-74
2023/05/15 01:13:34;;;;;;;7.05;3.15;;;16.20;87.90;;;;;;6244998;23;20008;-74
2023/05/15 01:16:00;;;;;;;6.57;3.20;;;16.30;88.10;;;;;;6245006;23;20080;-75
2023/05/15 01:18:31;;;;;;;7.50;3.40;;;16.30;88.10;;;;;;6245184;23;20026;-75
2023/05/15 01:21:00;;;;;;;9.60;3.83;;;16.30;88.40;;;;;;6245051;23;20004;-75
2023/05/15 01:23:45;;;;;;;7.25;3.40;;;16.30;88.20;;;;;;6245144;23;20036;-74
2023/05/15 01:26:36;;;;;;;20.65;5.30;;;16.30;88.60;;;;;;6245260;23;20067;-75
2023/05/15 01:29:13;;;;;;;7.63;3.75;;;16.30;87.90;;;;;;6218241;23;20319;-76
2023/05/15 01:31:43;;;;;;;9.55;4.05;;;16.20;88.10;;;;;;6245056;23;20072;-77
2023/05/15 01:34:10;;;;;;;9.35;4.45;;;16.20;88.00;;;;;;6244879;23;20004;-74
2023/05/15 01:36:48;;;;;;;6.78;4.05;;;16.10;88.10;;;;;;6244720;23;20375;-74
2023/05/15 01:39:18;;;;;;;9.05;4.55;;;16.00;88.70;;;;;;6245051;23;20004;-76
2023/05/15 01:41:51;;;;;;;8.88;4.22;;;15.90;88.10;;;;;;6244822;23;20008;-75
2023/05/15 01:44:28;;;;;;;9.60;4.10;;;15.90;88.40;;;;;;6244877;23;19996;-75
2023/05/15 01:46:57;;;;;;;11.75;4.80;;;16.00;89.20;;;;;;6244842;23;20065;-74
2023/05/15 01:49:26;;;;;;;9.55;4.35;;;16.00;88.40;;;;;;6245085;23;20047;-75
2023/05/15 01:52:00;;;;;;;11.45;4.60;;;15.90;88.30;;;;;;6217820;23;20039;-75
2023/05/15 01:54:28;;;;;;;7.90;4.22;;;15.90;88.40;;;;;;6244861;23;20319;-75
2023/05/15 01:56:56;;;;;;;10.40;4.70;;;15.90;88.60;;;;;;6244513;23;20000;-75
2023/05/15 01:59:23;;;;;;;7.15;3.88;;;15.80;88.40;;;;;;6244458;23;20082;-76
2023/05/15 02:01:50;;;;;;;7.28;3.97;;;15.80;88.70;;;;;;6244791;23;20043;-75
2023/05/15 02:04:17;;;;;;;9.77;4.30;;;15.80;88.90;;;;;;6244599;23;20020;-75
2023/05/15 02:06:43;;;;;;;10.35;4.15;;;15.70;88.70;;;;;;6244420;23;20004;-75
2023/05/15 02:09:09;;;;;;;9.95;4.53;;;15.70;88.80;;;;;;6244501;23;20075;-75
2023/05/15 02:11:36;;;;;;;10.77;3.90;;;15.60;88.90;;;;;;6217150;23;20004;-75
2023/05/15 02:14:04;;;;;;;9.20;4.30;;;15.60;89.00;;;;;;6244344;23;20000;-75
2023/05/15 02:16:29;;;;;;;7.40;3.80;;;15.60;89.10;;;;;;6244448;23;20027;-75
2023/05/15 02:18:55;;;;;;;9.23;3.72;;;15.60;89.40;;;;;;6217535;23;20004;-75
2023/05/15 02:21:21;;;;;;;7.75;3.90;;;15.60;89.30;;;;;;6244399;23;20055;-74
2023/05/15 02:23:47;;;;;;;9.13;3.85;;;15.50;89.40;;;;;;6244319;23;20000;-74
2023/05/15 02:26:39;;;;;;;8.52;3.97;;;15.40;89.70;;;;;;6244555;23;20000;-75
2023/05/15 02:29:16;;;;;;;10.98;4.35;;;15.40;90.00;;;;;;6244365;23;20015;-76
2023/05/15 02:31:57;;;;;;;6.32;3.60;;;15.40;90.00;;;;;;6244152;23;20003;-76
2023/05/15 02:34:38;;;;;;;9.70;3.90;;;15.40;90.10;;;;;;6244849;23;20013;-75
2023/05/15 02:37:08;;;;;;;11.82;4.80;;;15.40;90.10;;;;;;6244712;23;20008;-76
2023/05/15 02:39:34;;;;;;;10.48;4.90;;;15.40;90.40;;;;;;6244788;23;20004;-74
2023/05/15 02:42:01;;;;;;;8.43;4.40;;;15.40;90.20;;;;;;6244244;23;20004;-74
2023/05/15 02:44:27;;;;;;;7.53;3.78;;;15.30;90.20;;;;;;6244478;23;20399;-75
2023/05/15 02:46:54;;;;;;;10.18;4.60;;;15.30;90.30;;;;;;6244244;23;19997;-74
2023/05/15 02:49:21;;;;;;;7.95;4.35;;;15.30;90.20;;;;;;6244375;23;20051;-76
2023/05/15 02:51:46;;;;;;;9.73;4.18;;;15.20;90.40;;;;;;6244867;23;20011;-75
2023/05/15 02:54:12;;;;;;;8.82;4.88;;;15.20;90.40;;;;;;6244351;23;20004;-74
2023/05/15 02:56:38;;;;;;;7.15;4.25;;;15.20;90.60;;;;;;6244204;23;19996;-74
2023/05/15 02:59:04;;;;;;;10.75;4.03;;;15.20;90.50;;;;;;6244208;23;20006;-74
2023/05/15 03:01:30;;;;;;;9.18;4.65;;;15.30;90.60;;;;;;6244268;23;20023;-75
2023/05/15 03:03:56;;;;;;;7.90;4.50;;;15.30;90.60;;;;;;6244204;23;20012;-75
2023/05/15 03:06:21;;;;;;;7.25;3.58;;;15.30;90.60;;;;;;6244455;23;20019;-75
2023/05/15 03:08:47;;;;;;;10.00;4.07;;;15.30;90.50;;;;;;6244019;23;20334;-75
2023/05/15 03:11:13;;;;;;;6.38;3.28;;;15.30;90.60;;;;;;6244511;23;20266;-75
2023/05/15 03:13:38;;;;;;;10.27;4.10;;;15.20;90.50;;;;;;6244069;23;20389;-75
2023/05/15 03:16:04;;;;;;;8.77;3.90;;;15.20;90.60;;;;;;6217201;23;20011;-77
2023/05/15 03:18:30;;;;;;;9.60;3.92;;;15.20;90.70;;;;;;6244594;23;20031;-74
2023/05/15 03:20:56;;;;;;;7.13;4.03;;;15.10;90.60;;;;;;6243853;23;20456;-74
2023/05/15 03:23:21;;;;;;;6.50;3.53;;;15.10;90.70;;;;;;6217318;23;20394;-75
2023/05/15 03:25:47;;;;;;;6.35;3.42;;;15.10;90.70;;;;;;6244310;23;20012;-75
2023/05/15 03:28:13;;;;;;;7.13;3.72;;;15.00;90.90;;;;;;6244332;23;20008;-74
2023/05/15 03:30:38;;;;;;;10.82;4.07;;;15.10;91.00;;;;;;6244428;23;20484;-75
2023/05/15 03:33:04;;;;;;;8.95;3.60;;;15.00;90.90;;;;;;6243977;23;20035;-74
2023/05/15 03:35:31;;;;;;;7.35;3.60;;;15.00;90.90;;;;;;6243997;23;20004;-74
2023/05/15 03:37:57;;;;;;;7.28;3.50;;;15.00;91.00;;;;;;6244006;23;20035;-75
2023/05/15 03:40:22;;;;;;;9.85;4.10;;;14.90;91.00;;;;;;6246253;23;20011;-76
2023/05/15 03:42:52;;;;;;;7.00;3.65;;;15.00;91.00;;;;;;6250625;23;20004;-75
2023/05/15 03:45:18;;;;;;;7.18;3.90;;;15.00;90.90;;;;;;6249075;23;20004;-75
2023/05/15 03:47:43;;;;;;;9.25;4.28;;;14.90;90.90;;;;;;6245078;23;20016;-75
2023/05/15 03:50:10;;;;;;;8.30;4.13;;;14.90;91.00;;;;;;6245074;23;20008;-75
2023/05/15 03:52:35;;;;;;;8.55;4.18;;;14.90;91.10;;;;;;6244268;23;20054;-75
2023/05/15 03:55:01;;;;;;;10.32;4.30;;;14.80;91.20;;;;;;6243900;23;20000;-75
2023/05/15 03:57:27;;;;;;;9.27;4.97;;;14.80;91.30;;;;;;6244000;23;20012;-75
2023/05/15 03:59:52;;;;;;;13.98;4.60;;;14.70;91.30;;;;;;6244224;23;19996;-75
2023/05/15 04:02:18;;;;;;;7.85;4.20;;;14.80;91.40;;;;;;6243530;23;20012;-74
2023/05/15 04:04:44;;;;;;;8.95;4.38;;;14.80;91.30;;;;;;6243743;23;20063;-75
2023/05/15 04:07:09;;;;;;;9.75;4.47;;;14.70;91.30;;;;;;6244173;23;20009;-75
2023/05/15 04:09:35;;;;;;;8.75;4.35;;;14.70;91.30;;;;;;6244057;23;20338;-75
2023/05/15 04:12:01;;;;;;;9.82;4.55;;;14.70;91.40;;;;;;6243847;23;20008;-76
2023/05/15 04:14:26;;;;;;;9.60;4.50;;;14.70;91.40;;;;;;6243908;23;20010;-76
2023/05/15 04:16:52;;;;;;;9.25;4.97;;;14.80;91.40;;;;;;6243871;23;20023;-76
2023/05/15 04:19:18;;;;;;;9.00;5.50;;;14.80;91.40;;;;;;6243714;23;20058;-75
2023/05/15 04:21:43;;;;;;;10.55;5.45;;;14.80;91.40;;;;;;6245184;23;20019;-75
2023/05/15 04:24:09;;;;;;;10.45;5.32;;;14.70;91.40;;;;;;6245757;23;20334;-75
2023/05/15 04:26:35;;;;;;;11.23;5.80;;;14.70;91.40;;;;;;6245711;23;20006;-74
2023/05/15 04:29:02;;;;;;;9.45;6.13;;;14.70;91.40;;;;;;6245590;23;20099;-74
2023/05/15 04:31:27;;;;;;;14.10;6.80;;;14.70;91.50;;;;;;6245386;23;20047;-76
2023/05/15 04:33:53;;;;;;;8.90;6.57;;;14.70;91.40;;;;;;6245240;23;20434;-74
2023/05/15 04:36:19;;;;;;;11.35;6.32;;;14.60;91.40;;;;;;6245744;23;20003;-75
2023/05/15 04:38:45;;;;;;;10.77;6.28;;;14.60;91.40;;;;;;6245650;23;20502;-75
2023/05/15 04:41:11;;;;;;;8.63;5.78;;;14.60;91.60;;;;;;6245973;23;20043;-76
2023/05/15 04:43:36;;;;;;;9.27;5.22;;;14.60;91.60;;;;;;6245740;23;20043;-76
2023/05/15 04:46:02;;;;;;;11.50;6.13;;;14.60;91.50;;;;;;6244906;23;20079;-74
2023/05/15 04:48:28;;;;;;;11.50;6.43;;;14.70;91.50;;;;;;6245298;23;20581;-75
2023/05/15 04:50:53;;;;;;;12.93;5.80;;;14.70;91.50;;;;;;6245603;23;20000;-75
2023/05/15 04:53:19;;;;;;;8.80;5.22;;;14.60;91.30;;;;;;6246010;23;20008;-76
2023/05/15 04:55:45;;;;;;;10.80;5.72;;;14.60;91.40;;;;;;6245529;23;20498;-76
2023/05/15 04:58:10;;;;;;;12.48;6.30;;;14.60;91.50;;;;;;6245081;23;20004;-76
2023/05/15 05:00:36;;;;;;;15.10;6.72;;;14.60;91.40;;;;;;6245281;23;19996;-75
2023/05/15 05:03:02;;;;;;;11.27;7.00;;;14.60;91.50;;;;;;6245145;23;20016;-76
2023/05/15 05:05:27;;;;;;;11.18;6.50;;;14.70;91.60;;;;;;6245315;23;19992;-75
2023/05/15 05:07:53;;;;;;;9.85;6.00;;;14.80;91.50;;;;;;6245433;23;20349;-75
2023/05/15 05:10:19;;;;;;;12.15;7.07;;;14.90;91.50;;;;;;6245853;23;19996;-75
2023/05/15 05:12:44;;;;;;;11.27;7.45;;;14.90;91.40;;;;;;6245502;23;20056;-76
2023/05/15 05:15:10;;;;;;;14.30;6.40;;;14.90;91.20;;;;;;6245560;23;20044;-76
2023/05/15 05:17:36;;;;;;;11.90;6.20;;;14.90;91.10;;;;;;6245658;23;20004;-76
2023/05/15 05:20:01;;;;;;;10.30;6.03;;;15.00;91.10;;;;;;6245443;23;20008;-75
2023/05/15 05:22:27;;;;;;;9.02;5.80;;;15.00;90.90;;;;;;6245393;23;20012;-75
2023/05/15 05:24:53;;;;;;;10.75;6.80;;;15.10;91.10;;;;;;6245178;23;20440;-80
2023/05/15 05:27:18;;;;;;;12.18;6.13;;;15.00;90.90;;;;;;6246222;23;20012;-79
2023/05/15 05:29:45;;;;;;;10.35;5.72;;;15.20;90.90;;;;;;6245547;23;20004;-82
2023/05/15 05:32:10;;;;;;;13.40;6.15;;;15.40;90.60;;;;;;6245594;23;19988;-84
2023/05/15 05:34:36;;;;;;;13.57;6.35;;;15.60;90.30;;;;;;6218886;23;20011;-83
2023/05/15 05:37:02;;;;;;;9.18;5.88;;;15.80;90.00;;;;;;6245909;23;20000;-79
2023/05/15 05:39:27;;;;;;;11.30;5.75;;;15.90;89.50;;;;;;6245569;23;20004;-80
2023/05/15 05:41:53;;;;;;;14.30;6.82;;;16.00;89.20;;;;;;6245887;23;20066;-82
2023/05/15 05:44:19;;;;;;;10.15;5.40;;;16.20;88.50;;;;;;6245295;23;20000;-76
2023/05/15 05:46:45;;;;;;;10.20;5.03;;;16.40;88.00;;;;;;6245279;23;20050;-76
2023/05/15 05:49:11;;;;;;;8.95;5.00;;;16.50;87.10;;;;;;6245182;23;20090;-76
2023/05/15 05:51:37;;;;;;;13.63;4.60;;;16.80;86.80;;;;;;6218112;23;20358;-76
2023/05/15 05:54:03;;;;;;;9.50;4.05;;;17.10;86.50;;;;;;6244739;23;20007;-77
2023/05/15 05:56:29;;;;;;;10.38;3.80;;;17.30;86.00;;;;;;6245090;23;19996;-76
2023/05/15 05:58:55;;;;;;;8.50;3.95;;;17.40;85.00;;;;;;6244979;23;20004;-77
2023/05/15 06:01:21;;;;;;;6.20;3.80;;;17.60;84.50;;;;;;6244845;23;20315;-76
2023/05/15 06:03:47;;;;;;;8.15;3.60;;;17.70;84.00;;;;;;6244672;23;20016;-76
2023/05/15 06:06:13;;;;;;;17.30;3.85;;;17.90;83.60;;;;;;6245318;23;20117;-76
2023/05/15 06:08:38;;;;;;;10.98;3.53;;;18.10;82.80;;;;;;6244627;23;20008;-77
2023/05/15 06:11:05;;;;;;;7.35;3.20;;;18.20;82.10;;;;;;6245011;23;20111;-76
2023/05/15 06:13:30;;;;;;;8.15;3.30;;;18.20;80.80;;;;;;6244793;23;20095;-77
2023/05/15 06:15:56;;;;;;;5.57;3.03;;;18.10;80.50;;;;;;6245090;23;20050;-78
2023/05/15 06:18:22;;;;;;;7.13;3.50;;;18.00;79.90;;;;;;6245115;23;20000;-77
2023/05/15 06:20:47;;;;;;;10.45;2.85;;;18.00;80.30;;;;;;6245270;23;20046;-78
2023/05/15 06:23:13;;;;;;;7.43;3.10;;;18.00;80.10;;;;;;6244928;23;20000;-77
2023/05/15 06:25:39;;;;;;;10.75;3.67;;;18.00;79.50;;;;;;6245117;23;19993;-79
2023/05/15 06:28:04;;;;;;;7.55;3.08;;;18.10;80.20;;;;;;6244520;23;20131;-77
2023/05/15 06:30:30;;;;;;;13.23;3.88;;;18.30;79.60;;;;;;6244561;23;20075;-79
2023/05/15 06:32:56;;;;;;;12.15;3.83;;;18.30;79.00;;;;;;6244373;23;20000;-78
2023/05/15 06:35:24;;;;;;;10.45;3.67;;;18.40;79.00;;;;;;6244813;23;20008;-84
2023/05/15 06:37:51;;;;;;;9.50;3.58;;;18.40;78.60;;;;;;6244545;23;20070;-75
2023/05/15 06:40:16;;;;;;;10.02;3.58;;;18.50;78.70;;;;;;6243789;23;20028;-75
2023/05/15 06:42:42;;;;;;;7.88;3.35;;;18.50;78.00;;;;;;6217378;23;20023;-75
2023/05/15 06:45:08;;;;;;;10.07;3.75;;;18.60;77.90;;;;;;6217450;23;20515;-74
2023/05/15 06:47:34;;;;;;;11.05;3.38;;;18.40;78.00;;;;;;6243972;23;20035;-74
2023/05/15 06:50:00;;;;;;;9.20;3.75;;;18.40;77.40;;;;;;6244441;23;20307;-75
2023/05/15 06:52:25;;;;;;;13.70;3.67;;;18.40;78.10;;;;;;6244416;23;20007;-75
2023/05/15 06:54:51;;;;;;;6.78;3.50;;;18.40;77.90;;;;;;6244177;23;20000;-74
2023/05/15 06:57:18;;;;;;;12.38;3.65;;;18.50;77.50;;;;;;6244224;23;20004;-74
2023/05/15 06:59:43;;;;;;;10.63;3.00;;;18.50;77.40;;;;;;6217269;23;20035;-78
2023/05/15 07:02:09;;;;;;;9.52;2.75;;;18.70;77.30;;;;;;6244408;23;20415;-77
2023/05/15 07:04:35;;;;;;;6.82;2.80;;;18.80;76.70;;;;;;6244374;23;20083;-76
2023/05/15 07:07:01;;;;;;;7.30;3.00;;;18.90;76.30;;;;;;6244840;23;20327;-73
2023/05/15 07:09:26;;;;;;;8.10;2.70;;;19.00;76.40;;;;;;6244442;23;20032;-73
2023/05/15 07:11:52;;;;;;;8.23;2.67;;;19.10;76.10;;;;;;6244500;23;20436;-73
2023/05/15 07:14:18;;;;;;;11.02;2.67;;;19.30;75.70;;;;;;6244396;23;20115;-74
2023/05/15 07:16:45;;;;;;;7.68;2.75;;;19.30;75.00;;;;;;6244527;23;20004;-75
2023/05/15 07:19:11;;;;;;;11.02;2.72;;;19.40;74.80;;;;;;6245520;23;20000;-73
2023/05/15 07:21:38;;;;;;;8.40;2.72;;;19.40;75.00;;;;;;6246676;23;20083;-76
2023/05/15 07:24:04;;;;;;;9.52;2.38;;;19.40;74.80;;;;;;6244371;23;20004;-73
2023/05/15 07:26:31;;;;;;;11.63;2.83;;;19.40;74.80;;;;;;6217457;23;20039;-75
2023/05/15 07:28:57;;;;;;;8.18;3.03;;;19.20;74.70;;;;;;6243220;23;20015;-74
2023/05/15 07:31:22;;;;;;;6.07;2.78;;;19.10;75.00;;;;;;6243578;23;20008;-74
2023/05/15 07:33:48;;;;;;;9.40;2.97;;;19.00;75.30;;;;;;6244202;23;20031;-74
2023/05/15 07:36:14;;;;;;;6.97;2.67;;;18.90;75.20;;;;;;6244431;23;20394;-75
2023/05/15 07:38:39;;;;;;;14.20;3.35;;;18.80;75.60;;;;;;6217382;23;20008;-73
2023/05/15 07:41:05;;;;;;;9.40;2.70;;;18.80;75.80;;;;;;6244063;23;20001;-74
2023/05/15 07:43:30;;;;;;;13.10;3.08;;;18.80;75.70;;;;;;6244394;23;20003;-74
2023/05/15 07:45:56;;;;;;;10.15;2.90;;;18.70;75.70;;;;;;6244659;23;20011;-75
2023/05/15 07:48:22;;;;;;;5.72;2.60;;;18.80;76.30;;;;;;6243848;23;20012;-74
2023/05/15 07:50:51;;;;;;;7.80;2.78;;;18.80;75.60;;;;;;6243803;23;20107;-73
2023/05/15 07:53:16;;;;;;;13.75;2.70;;;18.80;75.30;;;;;;6243764;23;20007;-75
2023/05/15 07:55:43;;;;;;;8.00;2.60;;;18.70;75.90;;;;;;6244478;23;19997;-74
2023/05/15 07:58:09;;;;;;;12.45;3.65;;;18.60;75.70;;;;;;6246084;23;20338;-73
2023/05/15 08:00:35;;;;;;;11.57;2.75;;;18.60;76.10;;;;;;6246042;23;20042;-74
2023/05/15 08:03:01;;;;;;;9.07;3.08;;;18.80;75.90;;;;;;6245453;23;20016;-74
2023/05/15 08:05:28;;;;;;;12.15;3.25;;;18.80;75.50;;;;;;6245446;23;20005;-73
2023/05/15 08:07:54;;;;;;;7.88;3.50;;;18.80;75.50;;;;;;6245599;23;20449;-75
2023/05/15 08:10:20;;;;;;;10.18;3.25;;;18.90;75.40;;;;;;6245929;23;20042;-77
2023/05/15 08:12:47;;;;;;;5.50;2.80;;;18.90;75.50;;;;;;6245830;23;20030;-74
2023/05/15 08:15:13;;;;;;;9.70;2.72;;;19.00;75.30;;;;;;6245835;23;20023;-74
2023/05/15 08:17:40;;;;;;;10.70;3.13;;;19.10;74.90;;;;;;6246114;23;20000;-74
2023/05/15 08:20:06;;;;;;;5.93;2.80;;;19.00;75.10;;;;;;6246154;23;20016;-75
2023/05/15 08:22:32;;;;;;;12.07;4.35;;;19.10;75.20;;;;;;6245748;23;20090;-75
2023/05/15 08:24:58;;;;;;;8.63;3.08;;;19.30;75.10;;;;;;6245276;23;20000;-72
2023/05/15 08:27:24;;;;;;;8.00;2.38;;;19.50;74.60;;;;;;6244387;23;20000;-74
2023/05/15 08:29:51;;;;;;;10.98;2.45;;;19.50;74.00;;;;;;6245030;23;20019;-73
2023/05/15 08:32:17;;;;;;;9.68;3.35;;;19.60;73.70;;;;;;6246217;23;20000;-74
2023/05/15 08:34:43;;;;;;;8.13;2.50;;;19.70;73.50;;;;;;6246441;23;20004;-75
2023/05/15 08:37:09;;;;;;;12.13;2.72;;;19.70;72.50;;;;;;6246553;23;20074;-74
2023/05/15 08:39:35;;;;;;;5.68;2.03;;;19.80;71.90;;;;;;6246182;23;20003;-74
2023/05/15 08:42:20;;;;;;;4.47;1.75;;;19.70;71.20;;;;;;6245756;23;20004;-74
2023/05/15 08:44:46;;;;;;;8.10;2.10;;;19.70;71.50;;;;;;6246098;23;20032;-74
2023/05/15 08:47:14;;;;;;;8.63;2.75;;;19.70;71.00;;;;;;6246069;23;20001;-73
2023/05/15 08:49:55;;;;;;;7.60;2.20;;;19.90;70.90;;;;;;6218627;23;20008;-75
2023/05/15 08:52:22;;;;;;;9.35;2.60;;;20.00;71.10;;;;;;6245707;23;20070;-74
2023/05/15 08:54:48;;;;;;;6.38;1.88;;;20.10;70.80;;;;;;6218929;23;20012;-75
2023/05/15 08:57:14;;;;;;;5.88;1.77;;;20.10;69.90;;;;;;6245856;23;20130;-73
2023/05/15 08:59:40;;;;;;;3.67;1.63;;;20.00;69.10;;;;;;6245931;23;20004;-74
2023/05/15 09:02:06;;;;;;;6.05;1.85;;;20.00;69.20;;;;;;6246000;23;20448;-73
2023/05/15 09:04:31;;;;;;;4.35;1.80;;;20.00;68.50;;;;;;6244792;23;20500;-73
2023/05/15 09:07:02;;;;;;;4.82;1.63;;;20.00;69.00;;;;;;6245102;23;20095;-76
2023/05/15 09:09:30;;;;;;;6.15;1.63;;;19.90;68.90;;;;;;6245122;23;20398;-75
2023/05/15 09:11:56;;;;;;;13.18;3.70;;;19.90;68.60;;;;;;6245569;23;20387;-76
2023/05/15 09:14:22;;;;;;;7.13;2.50;;;20.00;69.00;;;;;;6245210;23;20066;-74
2023/05/15 09:16:49;;;;;;;8.18;2.72;;;20.20;68.60;;;;;;6245492;23;19996;-75
2023/05/15 09:19:17;;;;;;;10.55;2.33;;;20.30;68.30;;;;;;6245263;23;19996;-78
2023/05/15 09:21:43;;;;;;;5.70;1.60;;;20.40;67.60;;;;;;6246052;23;20012;-74
2023/05/15 09:24:16;;;;;;;18.92;3.50;;;20.50;67.70;;;;;;6245482;23;20363;-71
2023/05/15 09:26:43;;;;;;;8.32;1.80;;;20.50;67.80;;;;;;6245169;23;20000;-72
2023/05/15 09:29:09;;;;;;;12.15;2.85;;;20.50;67.10;;;;;;6242400;23;20008;-73
2023/05/15 09:31:35;;;;;;;8.10;2.70;;;20.50;66.80;;;;;;6244712;23;19997;-72
2023/05/15 09:34:03;;;;;;;6.60;1.70;;;20.50;66.80;;;;;;6244386;23;20071;-74
2023/05/15 09:36:29;;;;;;;8.90;1.70;;;20.70;66.90;;;;;;6245147;23;20000;-72
2023/05/15 09:38:59;;;;;;;4.75;1.70;;;20.80;66.30;;;;;;6244762;23;20046;-71
2023/05/15 09:41:25;;;;;;;5.32;1.80;;;20.70;65.40;;;;;;6245135;23;20430;-73
2023/05/15 09:43:55;;;;;;;9.25;2.38;;;20.80;65.50;;;;;;6244311;23;20338;-72
2023/05/15 09:46:21;;;;;;;3.58;1.60;;;20.80;65.50;;;;;;6244787;23;20004;-74
2023/05/15 09:48:47;;;;;;;5.88;1.50;;;20.70;65.20;;;;;;6245150;23;20066;-74
2023/05/15 09:51:17;;;;;;;5.57;2.00;;;20.60;65.50;;;;;;6244252;23;20004;-72
2023/05/15 09:53:51;;;;;;;5.65;1.90;;;20.50;65.70;;;;;;6245427;23;20018;-72
2023/05/15 09:56:17;;;;;;;6.93;1.85;;;20.60;65.90;;;;;;6244584;23;19996;-75
2023/05/15 09:58:57;;;;;;;7.22;2.40;;;20.60;65.30;;;;;;6244313;23;20001;-73
2023/05/15 10:01:24;;;;;;;16.00;3.33;;;20.70;65.10;;;;;;6245058;23;20283;-75
2023/05/15 10:04:00;;;;;;;9.77;2.30;;;20.90;65.10;;;;;;6218295;23;20020;-75
2023/05/15 10:06:26;;;;;;;3.38;1.40;;;21.00;64.60;;;;;;6245067;23;20000;-76
2023/05/15 10:08:53;;;;;;;5.65;1.40;;;21.00;63.90;;;;;;6244519;23;20054;-76
2023/05/15 10:11:20;;;;;;;8.27;2.20;;;20.90;63.80;;;;;;6244533;23;20321;-75
2023/05/15 10:13:47;;;;;;;9.82;2.50;;;20.90;64.30;;;;;;6245331;23;20085;-77
2023/05/15 10:16:13;;;;;;;4.30;1.80;;;21.00;64.50;;;;;;6245128;23;20000;-75
2023/05/15 10:18:40;;;;;;;8.35;2.70;;;21.00;64.20;;;;;;6243717;23;20079;-74
2023/05/15 10:21:08;;;;;;;5.13;1.70;;;21.10;64.20;;;;;;6244280;23;20004;-75
2023/05/15 10:23:36;;;;;;;5.38;1.85;;;21.10;63.60;;;;;;6217552;23;20008;-74
2023/05/15 10:26:09;;;;;;;5.82;1.83;;;21.20;63.80;;;;;;6245055;23;20007;-75
2023/05/15 10:28:36;;;;;;;3.70;1.35;;;21.20;63.60;;;;;;6244586;23;20085;-73
2023/05/15 10:31:03;;;;;;;5.15;1.33;;;21.20;63.50;;;;;;6244242;23;20067;-74
2023/05/15 10:33:29;;;;;;;4.85;1.40;;;21.20;63.40;;;;;;6244584;23;20008;-74
2023/05/15 10:35:57;;;;;;;4.63;1.50;;;21.10;63.40;;;;;;6245009;23;20031;-77
2023/05/15 10:38:24;;;;;;;7.40;2.33;;;21.00;63.60;;;;;;6217893;23;20008;-74
2023/05/15 10:40:51;;;;;;;3.85;1.55;;;21.10;63.60;;;;;;6244319;23;20004;-75
2023/05/15 10:43:19;;;;;;;3.03;1.55;;;21.20;63.30;;;;;;6244229;23;20500;-75
2023/05/15 10:45:46;;;;;;;3.80;1.60;;;21.30;63.30;;;;;;6244335;23;20027;-79
2023/05/15 10:48:13;;;;;;;7.47;1.85;;;21.30;63.10;;;;;;6244186;23;20040;-78
2023/05/15 10:50:39;;;;;;;5.28;1.77;;;21.30;62.90;;;;;;6244453;23;20007;-79
2023/05/15 10:53:05;;;;;;;6.72;2.20;;;21.30;62.90;;;;;;6244804;23;20079;-80
2023/05/15 10:55:31;;;;;;;3.58;1.60;;;21.20;62.50;;;;;;6216967;23;20008;-79
2023/05/15 10:57:56;;;;;;;7.47;1.63;;;21.30;62.40;;;;;;6244375;23;20028;-79
2023/05/15 11:00:22;;;;;;;5.78;1.80;;;21.30;62.20;;;;;;6244186;23;19996;-78
2023/05/15 11:02:52;;;;;;;8.20;1.80;;;21.30;62.00;;;;;;6245299;23;20020;-78
2023/05/15 11:05:18;;;;;;;5.38;1.63;;;21.40;62.10;;;;;;6244634;23;20004;-78
2023/05/15 11:08:03;;;;;;;5.32;1.75;;;21.40;61.70;;;;;;6244166;23;20481;-77
2023/05/15 11:10:29;;;;;;;3.80;1.63;;;21.30;61.60;;;;;;6243349;23;20004;-73
2023/05/15 11:12:56;;;;;;;10.32;2.70;;;21.50;61.90;;;;;;6243481;23;20069;-78
2023/05/15 11:15:22;;;;;;;4.57;1.63;;;21.60;62.10;;;;;;6243878;23;20052;-78
2023/05/15 11:18:07;;;;;;;5.93;1.85;;;21.70;61.60;;;;;;6244505;23;20004;-78
2023/05/15 11:20:50;;;;;;;6.30;1.85;;;21.80;61.70;;;;;;6244601;23;20081;-77
2023/05/15 11:23:20;;;;;;;3.50;1.50;;;21.90;61.00;;;;;;6244845;23;20012;-79
2023/05/15 11:25:54;;;;;;;4.80;1.70;;;21.90;61.40;;;;;;6244966;23;20070;-83
2023/05/15 11:28:22;;;;;;;6.13;1.50;;;22.00;61.50;;;;;;6244169;23;20042;-83
2023/05/15 11:30:50;;;;;;;7.50;1.60;;;22.10;60.90;;;;;;6244961;23;19996;-84
2023/05/15 11:33:19;;;;;;;5.05;1.60;;;22.20;60.50;;;;;;6246713;23;20026;-73
2023/05/15 11:35:57;;;;;;;4.18;1.40;;;22.20;60.70;;;;;;6246839;23;20007;-80
2023/05/15 11:38:24;;;;;;;4.55;1.73;;;22.20;60.50;;;;;;6246406;23;20095;-81
2023/05/15 11:40:53;;;;;;;3.75;1.40;;;22.10;60.40;;;;;;6246138;23;20430;-81
2023/05/15 11:43:33;;;;;;;6.28;1.98;;;22.00;60.40;;;;;;6246041;23;20399;-81
2023/05/15 11:46:02;;;;;;;4.97;1.90;;;22.10;60.70;;;;;;6246368;23;20031;-80
2023/05/15 11:48:42;;;;;;;3.38;1.70;;;22.10;60.20;;;;;;6245836;23;20016;-81
2023/05/15 11:51:24;;;;;;;4.38;1.92;;;22.20;60.20;;;;;;6246230;23;19996;-82
2023/05/15 11:53:52;;;;;;;5.15;1.60;;;22.30;60.40;;;;;;6246000;23;20071;-75
2023/05/15 11:56:20;;;;;;;6.40;1.75;;;22.30;60.10;;;;;;6246287;23;20329;-76
2023/05/15 11:58:57;;;;;;;4.55;1.80;;;22.40;61.30;;;;;;6245836;23;20091;-78
2023/05/15 12:01:23;;;;;;;4.30;1.33;;;22.40;60.80;;;;;;6245707;23;20434;-74
2023/05/15 12:03:50;;;;;;;3.35;1.38;;;22.50;59.50;;;;;;6245873;23;20024;-76
2023/05/15 12:06:16;;;;;;;5.28;1.48;;;22.50;60.10;;;;;;6245974;23;20027;-75
2023/05/15 12:08:42;;;;;;;4.50;1.60;;;22.40;59.10;;;;;;6245592;23;20008;-75
2023/05/15 12:11:09;;;;;;;5.05;1.67;;;22.50;59.60;;;;;;6245906;23;20030;-76
2023/05/15 12:13:35;;;;;;;6.20;1.60;;;22.50;59.10;;;;;;6245631;23;20001;-75
2023/05/15 12:16:04;;;;;;;4.60;1.98;;;22.70;59.40;;;;;;6245658;23;20023;-76
2023/05/15 12:18:31;;;;;;;4.85;1.67;;;22.70;59.70;;;;;;6245632;23;20015;-76
2023/05/15 12:20:57;;;;;;;4.55;1.90;;;22.80;60.20;;;;;;6245949;23;20051;-77
2023/05/15 12:23:25;;;;;;;5.55;1.92;;;22.80;59.30;;;;;;6245787;23;20302;-75
2023/05/15 12:25:57;;;;;;;5.30;1.80;;;22.80;59.20;;;;;;6245692;23;20030;-75
2023/05/15 12:28:23;;;;;;;5.95;2.47;;;22.90;59.40;;;;;;6245471;23;20008;-76
2023/05/15 12:30:49;;;;;;;3.20;1.50;;;23.00;59.20;;;;;;6245873;23;20003;-75
2023/05/15 12:33:15;;;;;;;4.28;1.77;;;23.00;58.10;;;;;;6246010;23;20043;-75
2023/05/15 12:35:50;;;;;;;6.40;1.50;;;23.00;58.30;;;;;;6245373;23;19996;-74
2023/05/15 12:38:16;;;;;;;4.28;1.73;;;23.00;58.70;;;;;;6245266;23;20074;-76
2023/05/15 12:40:45;;;;;;;6.90;1.98;;;22.90;59.00;;;;;;6245465;23;20383;-75
2023/05/15 12:43:13;;;;;;;5.18;1.63;;;22.90;59.50;;;;;;6244922;23;20000;-76